createdAt,value
2022-12-08T00:01:39.801Z,22.70
2022-12-08T00:04:07.209Z,22.48
2022-12-08T00:06:53.193Z,23.15
2022-12-08T00:09:23.688Z,22.35
2022-12-08T00:11:50.961Z,22.70
2022-12-08T00:14:18.153Z,21.70
2022-12-08T00:16:45.514Z,21.48
2022-12-08T00:19:12.754Z,21.25
2022-12-08T00:21:40.099Z,20.60
2022-12-08T00:24:07.305Z,20.95
2022-12-08T00:26:34.577Z,19.13
2022-12-08T00:29:02.178Z,18.20
2022-12-08T00:31:29.489Z,17.33
2022-12-08T00:33:56.763Z,17.30
2022-12-08T00:36:24.004Z,17.48
2022-12-08T00:38:51.146Z,18.15
2022-12-08T00:41:18.399Z,18.02
2022-12-08T00:43:45.768Z,16.52
2022-12-08T00:46:13.253Z,16.17
2022-12-08T00:48:40.477Z,16.45
2022-12-08T00:51:07.752Z,17.80
2022-12-08T00:53:34.899Z,18.95
2022-12-08T00:56:02.125Z,18.73
2022-12-08T00:58:29.287Z,17.63
2022-12-08T01:00:56.587Z,17.38
2022-12-08T01:03:23.931Z,17.92
2022-12-08T01:05:51.255Z,17.85
2022-12-08T01:08:18.867Z,17.10
2022-12-08T01:10:46.174Z,15.70
2022-12-08T01:13:13.433Z,15.50
2022-12-08T01:15:40.572Z,15.85
2022-12-08T01:18:07.853Z,16.83
2022-12-08T01:20:34.999Z,14.02
2022-12-08T01:23:02.224Z,15.30
2022-12-08T01:25:29.612Z,15.07
2022-12-08T01:27:56.921Z,13.77
2022-12-08T01:30:24.057Z,15.90
2022-12-08T01:32:52.008Z,15.75
2022-12-08T01:35:19.250Z,18.48
2022-12-08T01:37:46.435Z,16.35
2022-12-08T01:40:13.642Z,16.35
2022-12-08T01:42:40.947Z,16.83
2022-12-08T01:45:08.132Z,16.92
2022-12-08T01:47:35.721Z,16.70
2022-12-08T01:50:03.422Z,14.35
2022-12-08T01:52:30.876Z,16.92
2022-12-08T01:54:58.025Z,16.25
2022-12-08T01:57:25.283Z,16.08
2022-12-08T01:59:52.667Z,14.63
2022-12-08T02:02:19.922Z,15.95
2022-12-08T02:04:47.239Z,17.30
2022-12-08T02:07:14.455Z,16.92
2022-12-08T02:09:41.643Z,16.83
2022-12-08T02:12:08.854Z,17.10
2022-12-08T02:14:36.075Z,16.17
2022-12-08T02:17:03.285Z,15.98
2022-12-08T02:19:31.623Z,17.02
2022-12-08T02:21:59.262Z,18.27
2022-12-08T02:24:26.417Z,16.50
2022-12-08T02:26:53.642Z,16.73
2022-12-08T02:29:20.797Z,16.27
2022-12-08T02:31:47.986Z,17.65
2022-12-08T02:34:15.153Z,17.23
2022-12-08T02:36:42.355Z,18.02
2022-12-08T02:39:09.509Z,18.52
2022-12-08T02:41:36.782Z,17.55
2022-12-08T02:44:04.080Z,16.98
2022-12-08T02:46:31.306Z,17.08
2022-12-08T02:48:58.481Z,17.75
2022-12-08T02:51:25.689Z,17.60
2022-12-08T02:53:52.811Z,16.52
2022-12-08T02:56:20.001Z,17.75
2022-12-08T02:58:47.229Z,17.23
2022-12-08T03:01:14.468Z,16.67
2022-12-08T03:03:41.744Z,17.73
2022-12-08T03:06:09.375Z,16.42
2022-12-08T03:08:36.533Z,17.90
2022-12-08T03:11:03.731Z,16.52
2022-12-08T03:13:30.900Z,18.23
2022-12-08T03:15:58.208Z,17.33
2022-12-08T03:18:25.372Z,18.15
2022-12-08T03:20:52.557Z,18.42
2022-12-08T03:23:20.045Z,18.48
2022-12-08T03:25:47.259Z,16.48
2022-12-08T03:28:14.459Z,19.05
2022-12-08T03:30:41.661Z,16.23
2022-12-08T03:33:08.867Z,16.63
2022-12-08T03:35:36.049Z,16.05
2022-12-08T03:38:03.648Z,17.52
2022-12-08T03:40:30.839Z,16.88
2022-12-08T03:42:58.019Z,16.83
2022-12-08T03:45:25.303Z,16.75
2022-12-08T03:47:52.515Z,16.02
2022-12-08T03:50:19.737Z,16.58
2022-12-08T03:52:46.888Z,16.73
2022-12-08T03:55:14.096Z,16.70
2022-12-08T03:57:41.371Z,17.88
2022-12-08T04:00:08.621Z,15.38
2022-12-08T04:02:35.797Z,15.30
2022-12-08T04:05:03.034Z,15.75
2022-12-08T04:07:30.239Z,17.27
2022-12-08T04:09:57.382Z,18.40
2022-12-08T04:12:24.587Z,16.38
2022-12-08T04:14:51.794Z,16.35
2022-12-08T04:17:19.054Z,16.35
2022-12-08T04:19:46.189Z,16.13
2022-12-08T04:22:13.407Z,17.83
2022-12-08T04:24:40.550Z,17.65
2022-12-08T04:27:07.758Z,16.83
2022-12-08T04:29:35.043Z,18.23
2022-12-08T04:32:02.262Z,17.45
2022-12-08T04:34:29.440Z,18.17
2022-12-08T04:36:56.634Z,16.67
2022-12-08T04:39:23.778Z,16.98
2022-12-08T04:41:51.026Z,16.85
2022-12-08T04:44:18.239Z,18.08
2022-12-08T04:46:45.516Z,18.52
2022-12-08T04:49:12.669Z,17.58
2022-12-08T04:51:39.879Z,16.73
2022-12-08T04:54:07.038Z,17.67
2022-12-08T04:56:34.231Z,17.95
2022-12-08T04:59:01.464Z,17.55
2022-12-08T05:01:28.665Z,18.60
2022-12-08T05:03:55.945Z,18.30
2022-12-08T05:06:23.095Z,20.10
2022-12-08T05:08:50.303Z,18.10
2022-12-08T05:11:17.435Z,18.23
2022-12-08T05:13:44.677Z,17.42
2022-12-08T05:16:11.880Z,18.13
2022-12-08T05:18:39.081Z,19.63
2022-12-08T05:21:06.300Z,18.23
2022-12-08T05:23:33.503Z,18.17
2022-12-08T05:26:00.673Z,17.88
2022-12-08T05:28:44.041Z,17.67
2022-12-08T05:31:11.601Z,17.52
2022-12-08T05:33:38.833Z,18.42
2022-12-08T05:36:06.157Z,20.00
2022-12-08T05:38:33.279Z,17.70
2022-12-08T05:41:00.495Z,19.75
2022-12-08T05:43:27.711Z,19.48
2022-12-08T05:45:55.039Z,18.25
2022-12-08T05:48:22.245Z,19.08
2022-12-08T05:50:49.611Z,19.33
2022-12-08T05:53:16.754Z,20.05
2022-12-08T05:55:44.033Z,20.08
2022-12-08T05:58:11.163Z,19.17
2022-12-08T06:00:38.368Z,21.05
2022-12-08T06:03:05.641Z,18.05
2022-12-08T06:05:32.937Z,17.63
2022-12-08T06:08:00.172Z,18.55
2022-12-08T06:10:27.503Z,19.00
2022-12-08T06:12:54.674Z,19.60
2022-12-08T06:15:21.844Z,19.13
2022-12-08T06:17:49.012Z,18.65
2022-12-08T06:20:16.337Z,19.42
2022-12-08T06:22:43.506Z,19.23
2022-12-08T06:25:10.972Z,20.02
2022-12-08T06:27:38.141Z,19.55
2022-12-08T06:30:05.501Z,21.48
2022-12-08T06:32:32.838Z,18.55
2022-12-08T06:35:00.128Z,21.42
2022-12-08T06:37:27.307Z,19.88
2022-12-08T06:39:54.569Z,20.88
2022-12-08T06:42:40.581Z,21.33
2022-12-08T06:45:07.786Z,20.30
2022-12-08T06:47:35.341Z,20.17
2022-12-08T06:50:03.036Z,20.95
2022-12-08T06:52:30.499Z,20.77
2022-12-08T06:54:57.759Z,20.35
2022-12-08T06:57:25.863Z,20.45
2022-12-08T06:59:53.062Z,20.48
2022-12-08T07:02:20.342Z,19.23
2022-12-08T07:04:47.683Z,19.15
2022-12-08T07:07:14.879Z,20.58
2022-12-08T07:09:42.056Z,21.77
2022-12-08T07:12:09.187Z,18.98
2022-12-08T07:14:36.377Z,20.55
2022-12-08T07:17:03.591Z,19.60
2022-12-08T07:19:30.872Z,19.02
2022-12-08T07:21:58.056Z,20.75
2022-12-08T07:24:27.793Z,20.15
2022-12-08T07:26:55.006Z,19.42
2022-12-08T07:29:26.166Z,19.77
2022-12-08T07:31:53.807Z,20.67
2022-12-08T07:34:21.009Z,20.52
2022-12-08T07:36:48.206Z,21.73
2022-12-08T07:39:15.331Z,19.38
2022-12-08T07:41:42.549Z,19.55
2022-12-08T07:44:09.875Z,19.08
2022-12-08T07:46:37.105Z,19.50
2022-12-08T07:49:04.491Z,19.55
2022-12-08T07:51:31.737Z,20.60
2022-12-08T07:53:59.049Z,19.27
2022-12-08T07:56:26.232Z,20.15
2022-12-08T07:58:53.465Z,20.20
2022-12-08T08:01:20.716Z,19.88
2022-12-08T08:03:48.082Z,19.67
2022-12-08T08:06:15.381Z,19.92
2022-12-08T08:08:42.642Z,20.83
2022-12-08T08:11:17.419Z,20.13
2022-12-08T08:13:48.022Z,22.65
2022-12-08T08:16:15.419Z,20.27
2022-12-08T08:18:43.808Z,21.58
2022-12-08T08:23:59.052Z,22.38
2022-12-08T08:26:26.210Z,22.48
2022-12-08T08:28:56.110Z,21.85
2022-12-08T08:31:23.306Z,22.33
2022-12-08T08:33:51.148Z,23.15
2022-12-08T08:36:18.444Z,22.20
2022-12-08T08:38:45.687Z,21.10
2022-12-08T08:41:12.843Z,25.15
2022-12-08T08:43:40.053Z,22.95
2022-12-08T08:46:08.884Z,19.52
2022-12-08T08:48:36.337Z,22.52
2022-12-08T08:51:03.552Z,22.52
2022-12-08T08:53:30.823Z,22.65
2022-12-08T08:55:58.069Z,21.63
2022-12-08T08:58:25.324Z,21.83
2022-12-08T09:00:52.553Z,20.83
2022-12-08T09:03:19.852Z,22.88
2022-12-08T09:05:47.108Z,21.45
2022-12-08T09:08:14.434Z,20.77
2022-12-08T09:10:41.656Z,22.35
2022-12-08T09:13:11.109Z,21.13
2022-12-08T09:15:38.480Z,22.88
2022-12-08T09:18:06.846Z,20.98
2022-12-08T09:20:34.130Z,21.77
2022-12-08T09:23:01.408Z,20.58
2022-12-08T09:25:28.571Z,20.48
2022-12-08T09:27:55.825Z,21.30
2022-12-08T09:30:23.203Z,22.45
2022-12-08T09:32:50.504Z,21.98
2022-12-08T09:35:17.683Z,22.38
2022-12-08T09:37:44.962Z,20.83
2022-12-08T09:40:12.155Z,22.67
2022-12-08T09:42:39.342Z,22.20
2022-12-08T09:45:06.605Z,23.00
2022-12-08T09:47:36.039Z,23.13
2022-12-08T09:50:26.469Z,24.58
2022-12-08T09:52:53.840Z,23.08
2022-12-08T09:55:21.581Z,24.20
2022-12-08T09:57:53.075Z,23.48
2022-12-08T10:00:26.240Z,23.73
2022-12-08T10:02:53.470Z,22.92
2022-12-08T10:05:43.687Z,24.63
2022-12-08T10:08:13.368Z,24.33
2022-12-08T10:10:40.650Z,24.58
2022-12-08T10:13:07.887Z,24.10
2022-12-08T10:15:35.025Z,23.55
2022-12-08T10:18:05.146Z,22.48
2022-12-08T10:20:33.338Z,21.15
2022-12-08T10:23:00.588Z,21.30
2022-12-08T10:25:27.742Z,22.38
2022-12-08T10:27:57.137Z,22.15
2022-12-08T10:30:25.881Z,23.77
2022-12-08T10:33:15.391Z,25.35
2022-12-08T10:35:42.748Z,26.88
2022-12-08T10:38:10.086Z,26.25
2022-12-08T10:40:43.851Z,25.10
2022-12-08T10:43:12.788Z,27.05
2022-12-08T10:45:44.000Z,25.42
2022-12-08T10:48:11.270Z,25.08
2022-12-08T10:50:38.445Z,24.98
2022-12-08T10:53:05.699Z,25.33
2022-12-08T10:55:33.044Z,25.45
2022-12-08T10:58:00.315Z,24.65
2022-12-08T11:00:27.920Z,24.83
2022-12-08T11:02:55.647Z,24.40
2022-12-08T11:05:23.002Z,23.70
2022-12-08T11:07:50.411Z,23.98
2022-12-08T11:10:17.642Z,23.90
2022-12-08T11:12:45.170Z,21.27
2022-12-08T11:15:12.441Z,22.90
2022-12-08T11:17:39.849Z,23.45
2022-12-08T11:20:07.353Z,25.85
2022-12-08T11:22:34.908Z,24.42
2022-12-08T11:25:02.599Z,25.08
2022-12-08T11:27:29.910Z,22.92
2022-12-08T11:29:57.099Z,24.00
2022-12-08T11:32:24.528Z,23.48
2022-12-08T11:34:51.921Z,23.27
2022-12-08T11:37:19.318Z,20.45
2022-12-08T11:39:46.485Z,22.38
2022-12-08T11:42:13.983Z,23.60
2022-12-08T11:44:41.187Z,22.75
2022-12-08T11:47:08.519Z,23.30
2022-12-08T11:49:35.789Z,25.10
2022-12-08T11:52:03.194Z,33.75
2022-12-08T11:54:30.321Z,28.42
2022-12-08T11:56:57.549Z,51.70
2022-12-08T11:59:24.745Z,54.75
2022-12-08T12:01:52.065Z,33.45
2022-12-08T12:04:19.254Z,28.75
2022-12-08T12:06:54.605Z,26.70
2022-12-08T12:09:22.670Z,26.75
2022-12-08T12:12:08.719Z,24.13
2022-12-08T12:14:36.092Z,22.40
2022-12-08T12:17:03.490Z,23.55
2022-12-08T12:19:30.776Z,25.65
2022-12-08T12:21:57.990Z,24.17
2022-12-08T12:24:27.539Z,25.77
2022-12-08T12:26:56.858Z,28.45
2022-12-08T12:29:24.140Z,27.40
2022-12-08T12:31:51.433Z,29.60
2022-12-08T12:34:18.895Z,30.20
2022-12-08T12:36:46.090Z,29.40
2022-12-08T12:39:13.333Z,33.78
2022-12-08T12:41:40.562Z,32.55
2022-12-08T12:44:07.707Z,32.63
2022-12-08T12:46:35.135Z,35.60
2022-12-08T12:49:02.429Z,39.38
2022-12-08T12:51:29.665Z,42.60
2022-12-08T12:53:56.880Z,55.83
2022-12-08T12:56:24.090Z,52.28
2022-12-08T12:58:51.435Z,38.70
2022-12-08T13:01:18.665Z,38.63
2022-12-08T13:03:45.917Z,39.22
2022-12-08T13:06:14.849Z,35.40
2022-12-08T13:08:42.595Z,30.67
2022-12-08T13:11:09.953Z,34.90
2022-12-08T13:13:37.295Z,32.92
2022-12-08T13:16:15.383Z,30.80
2022-12-08T13:18:44.637Z,32.78
2022-12-08T13:21:11.861Z,30.70
2022-12-08T13:23:39.067Z,30.27
2022-12-08T13:26:06.309Z,30.85
2022-12-08T13:28:33.599Z,29.85
2022-12-08T13:31:00.857Z,26.67
2022-12-08T13:33:28.217Z,26.65
2022-12-08T13:35:55.381Z,28.70
2022-12-08T13:38:22.611Z,32.20
2022-12-08T13:40:49.959Z,26.70
2022-12-08T13:43:17.154Z,25.50
2022-12-08T13:46:57.498Z,25.23
2022-12-08T13:49:36.508Z,25.63
2022-12-08T13:53:15.840Z,25.42
2022-12-08T13:57:10.697Z,24.73
2022-12-08T13:59:38.827Z,24.10
2022-12-08T14:02:06.034Z,24.10
2022-12-08T14:04:54.577Z,23.38
2022-12-08T14:07:21.638Z,22.48
2022-12-08T14:09:48.894Z,21.65
2022-12-08T14:12:16.260Z,23.27
2022-12-08T14:17:32.741Z,24.63
2022-12-08T14:20:00.120Z,22.75
2022-12-08T14:22:27.401Z,21.42
2022-12-08T14:24:54.596Z,23.23
2022-12-08T14:27:21.945Z,20.98
2022-12-08T14:29:49.218Z,23.08
2022-12-08T14:32:16.801Z,25.23
2022-12-08T14:34:44.025Z,23.75
2022-12-08T14:37:11.398Z,22.63
2022-12-08T14:39:38.713Z,22.27
2022-12-08T14:42:06.015Z,19.58
2022-12-08T14:44:33.291Z,22.42
2022-12-08T14:47:05.353Z,19.63
2022-12-08T14:49:33.277Z,21.58
2022-12-08T14:52:00.433Z,23.00
2022-12-08T14:54:27.759Z,22.77
2022-12-08T14:56:55.153Z,20.58
2022-12-08T14:59:23.210Z,18.88
2022-12-08T15:01:50.405Z,20.15
2022-12-08T15:04:17.801Z,21.27
2022-12-08T15:06:45.116Z,19.65
2022-12-08T15:09:12.345Z,18.45
2022-12-08T15:11:39.529Z,20.33
2022-12-08T15:14:06.769Z,20.85
2022-12-08T15:16:34.328Z,20.45
2022-12-08T15:19:02.307Z,20.58
2022-12-08T15:21:29.590Z,19.92
2022-12-08T15:23:56.821Z,18.70
2022-12-08T15:26:24.285Z,18.10
2022-12-08T15:28:51.873Z,18.17
2022-12-08T15:31:19.272Z,17.10
2022-12-08T15:33:46.698Z,19.38
2022-12-08T15:36:14.000Z,17.65
2022-12-08T15:38:41.387Z,17.42
2022-12-08T15:41:14.419Z,18.75
2022-12-08T15:43:42.446Z,18.50
2022-12-08T15:46:09.753Z,18.75
2022-12-08T15:48:37.017Z,18.40
2022-12-08T15:51:04.209Z,16.73
2022-12-08T15:53:31.771Z,16.92
2022-12-08T15:56:28.924Z,17.30
2022-12-08T15:58:55.032Z,16.67
2022-12-08T16:01:23.243Z,17.80
2022-12-08T16:09:25.472Z,15.65
2022-12-08T16:12:11.750Z,14.80
2022-12-08T16:17:27.106Z,15.10
2022-12-08T16:19:54.323Z,15.98
2022-12-08T16:25:18.278Z,17.45
2022-12-08T16:30:33.658Z,15.50
2022-12-08T16:33:00.876Z,14.93
2022-12-08T16:35:28.273Z,16.13
2022-12-08T16:37:55.490Z,16.60
2022-12-08T16:40:22.722Z,16.63
2022-12-08T16:42:50.461Z,14.98
2022-12-08T16:45:17.806Z,15.93
2022-12-08T16:47:46.018Z,15.60
2022-12-08T16:50:13.295Z,17.02
2022-12-08T16:52:40.803Z,17.73
2022-12-08T16:55:08.204Z,15.68
2022-12-08T16:57:35.430Z,15.95
2022-12-08T17:00:02.912Z,15.02
2022-12-08T17:02:30.212Z,16.23
2022-12-08T17:04:57.478Z,17.45
2022-12-08T17:07:24.783Z,18.77
2022-12-08T17:09:52.070Z,19.23
2022-12-08T17:12:19.331Z,20.23
2022-12-08T17:14:46.592Z,19.48
2022-12-08T17:17:13.736Z,19.20
2022-12-08T17:19:40.931Z,20.10
2022-12-08T17:22:08.111Z,19.85
2022-12-08T17:24:35.395Z,19.17
2022-12-08T17:27:04.251Z,19.33
2022-12-08T17:29:31.587Z,18.10
2022-12-08T17:31:58.914Z,18.20
2022-12-08T17:34:26.151Z,15.70
2022-12-08T17:36:53.414Z,17.60
2022-12-08T17:39:20.621Z,17.35
2022-12-08T17:41:47.959Z,16.23
2022-12-08T17:44:15.308Z,15.93
2022-12-08T17:46:46.388Z,16.77
2022-12-08T17:49:18.028Z,16.58
2022-12-08T17:51:45.192Z,16.42
2022-12-08T17:54:12.573Z,16.00
2022-12-08T17:56:39.795Z,16.73
2022-12-08T17:59:07.518Z,19.00
2022-12-08T18:01:34.816Z,20.25
2022-12-08T18:04:03.071Z,19.77
2022-12-08T18:06:31.373Z,22.00
2022-12-08T18:08:59.803Z,22.77
2022-12-08T18:11:26.992Z,21.08
2022-12-08T18:13:54.278Z,20.20
2022-12-08T18:16:21.533Z,20.52
2022-12-08T18:18:48.920Z,21.98
2022-12-08T18:21:22.815Z,21.92
2022-12-08T18:26:18.082Z,23.45
2022-12-08T18:28:45.291Z,23.48
2022-12-08T18:31:12.691Z,23.17
2022-12-08T18:33:40.077Z,21.58
2022-12-08T18:36:07.399Z,20.65
2022-12-08T18:38:34.780Z,21.05
2022-12-08T18:41:02.056Z,19.33
2022-12-08T18:43:29.316Z,18.20
2022-12-08T18:45:56.612Z,20.13
2022-12-08T18:48:23.849Z,18.60
2022-12-08T18:50:51.076Z,17.00
2022-12-08T18:53:18.311Z,18.30
2022-12-08T18:55:46.760Z,18.00
2022-12-08T18:58:14.557Z,18.45
2022-12-08T19:00:41.863Z,19.58
2022-12-08T19:03:09.208Z,19.40
2022-12-08T19:05:36.379Z,18.52
2022-12-08T19:08:03.718Z,18.25
2022-12-08T19:10:32.218Z,19.55
2022-12-08T19:12:59.463Z,18.00
2022-12-08T19:15:26.775Z,16.70
2022-12-08T19:17:54.174Z,18.65
2022-12-08T19:20:21.418Z,18.55
2022-12-08T19:22:48.744Z,17.38
2022-12-08T19:25:15.927Z,18.08
2022-12-08T19:27:44.147Z,18.58
2022-12-08T19:30:11.306Z,19.50
2022-12-08T19:32:38.605Z,18.48
2022-12-08T19:35:07.549Z,17.92
2022-12-08T19:37:35.084Z,17.95
2022-12-08T19:40:21.178Z,16.25
2022-12-08T19:43:07.405Z,18.42
2022-12-08T19:45:35.179Z,17.83
2022-12-08T19:48:02.801Z,17.45
2022-12-08T19:50:36.348Z,18.75
2022-12-08T19:53:03.755Z,16.77
2022-12-08T19:55:30.949Z,17.13
2022-12-08T19:57:58.481Z,17.63
2022-12-08T20:00:25.722Z,19.60
2022-12-08T20:02:53.035Z,16.98
2022-12-08T20:05:20.387Z,17.13
2022-12-08T20:07:47.740Z,19.25
2022-12-08T20:10:16.460Z,17.65
2022-12-08T20:12:43.714Z,17.60
2022-12-08T20:15:11.184Z,17.15
2022-12-08T20:17:38.454Z,17.45
2022-12-08T20:20:09.969Z,18.63
2022-12-08T20:22:37.431Z,17.52
2022-12-08T20:25:04.678Z,18.83
2022-12-08T20:27:32.080Z,17.90
2022-12-08T20:29:59.273Z,17.20
2022-12-08T20:32:26.484Z,18.25
2022-12-08T20:34:53.833Z,18.15
2022-12-08T20:37:21.133Z,17.67
2022-12-08T20:39:48.833Z,17.92
2022-12-08T20:42:16.291Z,16.23
2022-12-08T20:44:44.591Z,17.83
2022-12-08T20:47:12.465Z,17.15
2022-12-08T20:49:42.278Z,19.45
2022-12-08T20:52:09.727Z,17.88
2022-12-08T20:54:37.081Z,16.65
2022-12-08T20:57:04.393Z,18.85
2022-12-08T20:59:31.575Z,17.55
2022-12-08T21:04:27.800Z,17.70
